sensor_id;sensor_type;location;lat;lon;timestamp;temperature;humidity
18506;DHT22;9382;53.242;10.438;2023-05-14T00:00:12;11.60;99.90
18506;DHT22;9382;53.242;10.438;2023-05-14T00:02:38;11.60;99.90
18506;DHT22;9382;53.242;10.438;2023-05-14T00:05:06;11.50;99.90
18506;DHT22;9382;53.242;10.438;2023-05-14T00:07:32;11.50;99.90
18506;DHT22;9382;53.242;10.438;2023-05-14T00:09:59;11.50;99.90
18506;DHT22;9382;53.242;10.438;2023-05-14T00:12:26;11.40;99.90
18506;DHT22;9382;53.242;10.438;2023-05-14T00:14:54;11.40;99.90
18506;DHT22;9382;53.242;10.438;2023-05-14T00:17:20;11.30;99.90
18506;DHT22;9382;53.242;10.438;2023-05-14T00:19:47;11.30;99.90
18506;DHT22;9382;53.242;10.438;2023-05-14T00:22:14;11.20;99.90
18506;DHT22;9382;53.242;10.438;2023-05-14T00:24:40;11.20;99.90
18506;DHT22;9382;53.242;10.438;2023-05-14T00:27:07;11.10;99.90
18506;DHT22;9382;53.242;10.438;2023-05-14T00:29:34;11.10;99.90
18506;DHT22;9382;53.242;10.438;2023-05-14T00:32:02;11.00;99.90
18506;DHT22;9382;53.242;10.438;2023-05-14T00:34:29;11.00;99.90
18506;DHT22;9382;53.242;10.438;2023-05-14T00:36:56;11.00;99.90
18506;DHT22;9382;53.242;10.438;2023-05-14T00:39:22;10.90;99.90
18506;DHT22;9382;53.242;10.438;2023-05-14T00:41:49;10.90;99.90
18506;DHT22;9382;53.242;10.438;2023-05-14T00:44:15;10.80;99.90
18506;DHT22;9382;53.242;10.438;2023-05-14T00:46:42;10.70;99.90
18506;DHT22;9382;53.242;10.438;2023-05-14T00:49:10;10.70;99.90
18506;DHT22;9382;53.242;10.438;2023-05-14T00:51:37;10.70;99.90
18506;DHT22;9382;53.242;10.438;2023-05-14T00:54:05;10.50;99.90
18506;DHT22;9382;53.242;10.438;2023-05-14T00:56:34;10.50;99.90
18506;DHT22;9382;53.242;10.438;2023-05-14T00:59:00;10.50;99.90
18506;DHT22;9382;53.242;10.438;2023-05-14T01:01:27;10.40;99.90
18506;DHT22;9382;53.242;10.438;2023-05-14T01:03:54;10.40;99.90
18506;DHT22;9382;53.242;10.438;2023-05-14T01:06:28;10.40;99.90
18506;DHT22;9382;53.242;10.438;2023-05-14T01:09:02;10.30;99.90
18506;DHT22;9382;53.242;10.438;2023-05-14T01:11:35;10.30;99.90
18506;DHT22;9382;53.242;10.438;2023-05-14T01:14:12;10.30;99.90
18506;DHT22;9382;53.242;10.438;2023-05-14T01:16:39;10.30;99.90
18506;DHT22;9382;53.242;10.438;2023-05-14T01:19:14;10.20;99.90
18506;DHT22;9382;53.242;10.438;2023-05-14T01:21:43;10.20;99.90
18506;DHT22;9382;53.242;10.438;2023-05-14T01:24:10;10.10;99.90
18506;DHT22;9382;53.242;10.438;2023-05-14T01:26:37;10.10;99.90
18506;DHT22;9382;53.242;10.438;2023-05-14T01:29:09;10.00;99.90
18506;DHT22;9382;53.242;10.438;2023-05-14T01:31:38;9.90;99.90
18506;DHT22;9382;53.242;10.438;2023-05-14T01:34:06;9.90;99.90
18506;DHT22;9382;53.242;10.438;2023-05-14T01:36:34;9.90;99.90
18506;DHT22;9382;53.242;10.438;2023-05-14T01:39:02;9.80;99.90
18506;DHT22;9382;53.242;10.438;2023-05-14T01:41:30;9.80;99.90
18506;DHT22;9382;53.242;10.438;2023-05-14T01:43:57;9.80;99.90
18506;DHT22;9382;53.242;10.438;2023-05-14T01:46:24;9.70;99.90
18506;DHT22;9382;53.242;10.438;2023-05-14T01:48:51;9.70;99.90
18506;DHT22;9382;53.242;10.438;2023-05-14T01:51:18;9.60;99.90
18506;DHT22;9382;53.242;10.438;2023-05-14T01:53:45;9.60;99.90
18506;DHT22;9382;53.242;10.438;2023-05-14T01:56:12;9.50;99.90
18506;DHT22;9382;53.242;10.438;2023-05-14T01:58:39;9.50;99.90
18506;DHT22;9382;53.242;10.438;2023-05-14T02:01:06;9.50;99.90
18506;DHT22;9382;53.242;10.438;2023-05-14T02:03:32;9.50;99.90
18506;DHT22;9382;53.242;10.438;2023-05-14T02:05:59;9.40;99.90
18506;DHT22;9382;53.242;10.438;2023-05-14T02:08:25;9.30;99.90
18506;DHT22;9382;53.242;10.438;2023-05-14T02:10:52;9.30;99.90
18506;DHT22;9382;53.242;10.438;2023-05-14T02:13:20;9.20;99.90
18506;DHT22;9382;53.242;10.438;2023-05-14T02:15:48;9.20;99.90
18506;DHT22;9382;53.242;10.438;2023-05-14T02:18:14;9.10;99.90
18506;DHT22;9382;53.242;10.438;2023-05-14T02:20:41;9.20;99.90
18506;DHT22;9382;53.242;10.438;2023-05-14T02:23:07;9.20;99.90
18506;DHT22;9382;53.242;10.438;2023-05-14T02:25:34;9.20;99.90
18506;DHT22;9382;53.242;10.438;2023-05-14T02:28:01;9.10;99.90
18506;DHT22;9382;53.242;10.438;2023-05-14T02:30:29;9.10;99.90
18506;DHT22;9382;53.242;10.438;2023-05-14T02:32:56;9.10;99.90
18506;DHT22;9382;53.242;10.438;2023-05-14T02:35:23;9.00;99.90
18506;DHT22;9382;53.242;10.438;2023-05-14T02:37:50;9.00;99.90
18506;DHT22;9382;53.242;10.438;2023-05-14T02:40:17;9.00;99.90
18506;DHT22;9382;53.242;10.438;2023-05-14T02:42:43;9.00;99.90
18506;DHT22;9382;53.242;10.438;2023-05-14T02:45:10;8.90;99.90
18506;DHT22;9382;53.242;10.438;2023-05-14T02:47:38;8.90;99.90
18506;DHT22;9382;53.242;10.438;2023-05-14T02:50:06;8.80;99.90
18506;DHT22;9382;53.242;10.438;2023-05-14T02:52:33;8.80;99.90
18506;DHT22;9382;53.242;10.438;2023-05-14T02:54:59;8.80;99.90
18506;DHT22;9382;53.242;10.438;2023-05-14T02:57:26;8.80;99.90
18506;DHT22;9382;53.242;10.438;2023-05-14T02:59:53;8.70;99.90
18506;DHT22;9382;53.242;10.438;2023-05-14T03:02:19;8.70;99.90
18506;DHT22;9382;53.242;10.438;2023-05-14T03:04:48;8.70;99.90
18506;DHT22;9382;53.242;10.438;2023-05-14T03:07:14;8.70;99.90
18506;DHT22;9382;53.242;10.438;2023-05-14T03:09:41;8.60;99.90
18506;DHT22;9382;53.242;10.438;2023-05-14T03:12:08;8.60;99.90
18506;DHT22;9382;53.242;10.438;2023-05-14T03:14:34;8.60;99.90
18506;DHT22;9382;53.242;10.438;2023-05-14T03:17:01;8.60;99.90
18506;DHT22;9382;53.242;10.438;2023-05-14T03:19:28;8.50;99.90
18506;DHT22;9382;53.242;10.438;2023-05-14T03:21:56;8.50;99.90
18506;DHT22;9382;53.242;10.438;2023-05-14T03:24:22;8.50;99.90
18506;DHT22;9382;53.242;10.438;2023-05-14T03:26:49;8.50;99.90
18506;DHT22;9382;53.242;10.438;2023-05-14T03:29:16;8.50;99.90
18506;DHT22;9382;53.242;10.438;2023-05-14T03:31:42;8.50;99.90
18506;DHT22;9382;53.242;10.438;2023-05-14T03:34:09;8.50;99.90
18506;DHT22;9382;53.242;10.438;2023-05-14T03:36:36;8.40;99.90
18506;DHT22;9382;53.242;10.438;2023-05-14T03:39:05;8.40;99.90
18506;DHT22;9382;53.242;10.438;2023-05-14T03:41:32;8.40;99.90
18506;DHT22;9382;53.242;10.438;2023-05-14T03:43:59;8.40;99.90
18506;DHT22;9382;53.242;10.438;2023-05-14T03:46:26;8.40;99.90
18506;DHT22;9382;53.242;10.438;2023-05-14T03:48:52;8.40;99.90
18506;DHT22;9382;53.242;10.438;2023-05-14T03:51:19;8.40;99.90
18506;DHT22;9382;53.242;10.438;2023-05-14T03:53:45;8.40;99.90
18506;DHT22;9382;53.242;10.438;2023-05-14T03:56:13;8.40;99.90
18506;DHT22;9382;53.242;10.438;2023-05-14T03:58:40;8.40;99.90
18506;DHT22;9382;53.242;10.438;2023-05-14T04:01:07;8.40;99.90
18506;DHT22;9382;53.242;10.438;2023-05-14T04:03:33;8.40;99.90
18506;DHT22;9382;53.242;10.438;2023-05-14T04:06:00;8.50;99.90
18506;DHT22;9382;53.242;10.438;2023-05-14T04:08:27;8.50;99.90
18506;DHT22;9382;53.242;10.438;2023-05-14T04:10:53;8.50;99.90
18506;DHT22;9382;53.242;10.438;2023-05-14T04:13:21;8.50;99.90
18506;DHT22;9382;53.242;10.438;2023-05-14T04:15:48;8.50;99.90
18506;DHT22;9382;53.242;10.438;2023-05-14T04:18:15;8.50;99.90
18506;DHT22;9382;53.242;10.438;2023-05-14T04:20:41;8.60;99.90
18506;DHT22;9382;53.242;10.438;2023-05-14T04:23:08;8.60;99.90
18506;DHT22;9382;53.242;10.438;2023-05-14T04:25:35;8.70;99.90
18506;DHT22;9382;53.242;10.438;2023-05-14T04:28:01;8.70;99.90
18506;DHT22;9382;53.242;10.438;2023-05-14T04:30:29;8.70;99.90
18506;DHT22;9382;53.242;10.438;2023-05-14T04:32:56;8.80;99.90
18506;DHT22;9382;53.242;10.438;2023-05-14T04:35:23;8.80;99.90
18506;DHT22;9382;53.242;10.438;2023-05-14T04:37:50;8.90;99.90
18506;DHT22;9382;53.242;10.438;2023-05-14T04:40:17;8.90;99.90
18506;DHT22;9382;53.242;10.438;2023-05-14T04:42:44;9.00;99.90
18506;DHT22;9382;53.242;10.438;2023-05-14T04:45:11;9.00;99.90
18506;DHT22;9382;53.242;10.438;2023-05-14T04:47:41;9.00;99.90
18506;DHT22;9382;53.242;10.438;2023-05-14T04:50:09;9.10;99.90
18506;DHT22;9382;53.242;10.438;2023-05-14T04:52:36;9.20;99.90
18506;DHT22;9382;53.242;10.438;2023-05-14T04:55:04;9.30;99.90
18506;DHT22;9382;53.242;10.438;2023-05-14T04:57:31;9.40;99.90
18506;DHT22;9382;53.242;10.438;2023-05-14T04:59:57;9.50;99.90
18506;DHT22;9382;53.242;10.438;2023-05-14T05:02:24;9.50;99.90
18506;DHT22;9382;53.242;10.438;2023-05-14T05:04:52;9.60;99.90
18506;DHT22;9382;53.242;10.438;2023-05-14T05:07:19;9.70;99.90
18506;DHT22;9382;53.242;10.438;2023-05-14T05:09:45;9.70;99.90
18506;DHT22;9382;53.242;10.438;2023-05-14T05:12:12;9.80;99.90
18506;DHT22;9382;53.242;10.438;2023-05-14T05:14:38;9.80;99.90
18506;DHT22;9382;53.242;10.438;2023-05-14T05:17:05;9.80;99.90
18506;DHT22;9382;53.242;10.438;2023-05-14T05:19:32;9.90;99.90
18506;DHT22;9382;53.242;10.438;2023-05-14T05:22:00;9.90;99.90
18506;DHT22;9382;53.242;10.438;2023-05-14T05:24:26;10.00;99.90
18506;DHT22;9382;53.242;10.438;2023-05-14T05:26:53;10.10;99.90
18506;DHT22;9382;53.242;10.438;2023-05-14T05:29:21;10.20;99.90
18506;DHT22;9382;53.242;10.438;2023-05-14T05:31:47;10.30;99.90
18506;DHT22;9382;53.242;10.438;2023-05-14T05:34:14;10.40;99.90
18506;DHT22;9382;53.242;10.438;2023-05-14T05:36:41;10.50;99.90
18506;DHT22;9382;53.242;10.438;2023-05-14T05:39:09;10.60;99.90
18506;DHT22;9382;53.242;10.438;2023-05-14T05:41:35;10.70;99.90
18506;DHT22;9382;53.242;10.438;2023-05-14T05:44:02;10.90;99.90
18506;DHT22;9382;53.242;10.438;2023-05-14T05:46:29;11.00;99.90
18506;DHT22;9382;53.242;10.438;2023-05-14T05:48:56;11.10;99.90
18506;DHT22;9382;53.242;10.438;2023-05-14T05:51:22;11.40;99.90
18506;DHT22;9382;53.242;10.438;2023-05-14T05:53:49;11.60;99.90
18506;DHT22;9382;53.242;10.438;2023-05-14T05:56:17;11.80;99.90
18506;DHT22;9382;53.242;10.438;2023-05-14T05:58:44;12.10;99.90
18506;DHT22;9382;53.242;10.438;2023-05-14T06:01:10;12.40;99.90
18506;DHT22;9382;53.242;10.438;2023-05-14T06:03:37;12.70;99.90
18506;DHT22;9382;53.242;10.438;2023-05-14T06:06:04;12.90;99.90
18506;DHT22;9382;53.242;10.438;2023-05-14T06:08:30;13.10;99.90
18506;DHT22;9382;53.242;10.438;2023-05-14T06:10:57;13.30;99.90
18506;DHT22;9382;53.242;10.438;2023-05-14T06:13:25;13.50;99.90
18506;DHT22;9382;53.242;10.438;2023-05-14T06:15:52;13.60;99.90
18506;DHT22;9382;53.242;10.438;2023-05-14T06:18:18;13.80;99.90
18506;DHT22;9382;53.242;10.438;2023-05-14T06:20:45;13.90;99.90
18506;DHT22;9382;53.242;10.438;2023-05-14T06:23:12;14.10;99.90
18506;DHT22;9382;53.242;10.438;2023-05-14T06:25:38;14.40;99.90
18506;DHT22;9382;53.242;10.438;2023-05-14T06:28:05;14.50;99.90
18506;DHT22;9382;53.242;10.438;2023-05-14T06:30:33;14.80;99.90
18506;DHT22;9382;53.242;10.438;2023-05-14T06:32:59;15.00;99.90
18506;DHT22;9382;53.242;10.438;2023-05-14T06:35:26;15.30;99.90
18506;DHT22;9382;53.242;10.438;2023-05-14T06:37:53;15.40;99.90
18506;DHT22;9382;53.242;10.438;2023-05-14T06:40:20;15.60;99.90
18506;DHT22;9382;53.242;10.438;2023-05-14T06:42:46;15.80;99.90
18506;DHT22;9382;53.242;10.438;2023-05-14T06:45:13;16.00;99.90
18506;DHT22;9382;53.242;10.438;2023-05-14T06:47:41;16.20;99.90
18506;DHT22;9382;53.242;10.438;2023-05-14T06:50:09;16.40;99.90
18506;DHT22;9382;53.242;10.438;2023-05-14T06:52:36;16.50;99.90
18506;DHT22;9382;53.242;10.438;2023-05-14T06:55:03;16.70;99.90
18506;DHT22;9382;53.242;10.438;2023-05-14T06:57:29;16.80;99.90
18506;DHT22;9382;53.242;10.438;2023-05-14T06:59:56;16.90;99.90
18506;DHT22;9382;53.242;10.438;2023-05-14T07:02:23;17.00;99.90
18506;DHT22;9382;53.242;10.438;2023-05-14T07:04:51;17.20;99.90
18506;DHT22;9382;53.242;10.438;2023-05-14T07:07:17;17.20;99.90
18506;DHT22;9382;53.242;10.438;2023-05-14T07:09:45;17.40;99.90
18506;DHT22;9382;53.242;10.438;2023-05-14T07:12:12;17.60;99.90
18506;DHT22;9382;53.242;10.438;2023-05-14T07:14:39;17.70;99.90
18506;DHT22;9382;53.242;10.438;2023-05-14T07:17:05;17.90;99.90
18506;DHT22;9382;53.242;10.438;2023-05-14T07:19:32;18.10;99.90
18506;DHT22;9382;53.242;10.438;2023-05-14T07:22:00;18.20;99.90
18506;DHT22;9382;53.242;10.438;2023-05-14T07:24:27;18.30;99.90
18506;DHT22;9382;53.242;10.438;2023-05-14T07:26:53;18.40;99.90
18506;DHT22;9382;53.242;10.438;2023-05-14T07:29:21;18.60;99.90
18506;DHT22;9382;53.242;10.438;2023-05-14T07:31:49;18.70;99.90
18506;DHT22;9382;53.242;10.438;2023-05-14T07:34:16;18.80;99.90
18506;DHT22;9382;53.242;10.438;2023-05-14T07:36:43;19.00;99.90
18506;DHT22;9382;53.242;10.438;2023-05-14T07:39:11;19.10;99.90
18506;DHT22;9382;53.242;10.438;2023-05-14T07:41:37;19.30;99.90
18506;DHT22;9382;53.242;10.438;2023-05-14T07:44:04;19.50;99.90
18506;DHT22;9382;53.242;10.438;2023-05-14T07:46:31;19.60;99.90
18506;DHT22;9382;53.242;10.438;2023-05-14T07:48:57;19.70;99.90
18506;DHT22;9382;53.242;10.438;2023-05-14T07:51:24;19.80;99.90
18506;DHT22;9382;53.242;10.438;2023-05-14T07:53:52;19.90;99.90
18506;DHT22;9382;53.242;10.438;2023-05-14T07:56:21;20.10;99.90
18506;DHT22;9382;53.242;10.438;2023-05-14T07:58:47;20.20;99.90
18506;DHT22;9382;53.242;10.438;2023-05-14T08:01:14;20.30;99.90
18506;DHT22;9382;53.242;10.438;2023-05-14T08:03:41;20.40;99.90
18506;DHT22;9382;53.242;10.438;2023-05-14T08:06:07;20.50;99.90
18506;DHT22;9382;53.242;10.438;2023-05-14T08:08:34;20.60;99.90
18506;DHT22;9382;53.242;10.438;2023-05-14T08:11:01;20.70;99.90
18506;DHT22;9382;53.242;10.438;2023-05-14T08:13:29;20.80;99.90
18506;DHT22;9382;53.242;10.438;2023-05-14T08:15:56;20.90;99.90
18506;DHT22;9382;53.242;10.438;2023-05-14T08:18:23;21.00;99.90
18506;DHT22;9382;53.242;10.438;2023-05-14T08:20:49;21.20;99.90
18506;DHT22;9382;53.242;10.438;2023-05-14T08:23:16;21.40;99.90
18506;DHT22;9382;53.242;10.438;2023-05-14T08:25:43;21.60;99.90
18506;DHT22;9382;53.242;10.438;2023-05-14T08:28:09;21.80;99.90
18506;DHT22;9382;53.242;10.438;2023-05-14T08:30:37;21.90;99.90
18506;DHT22;9382;53.242;10.438;2023-05-14T08:33:04;22.10;99.90
18506;DHT22;9382;53.242;10.438;2023-05-14T08:35:31;22.20;99.90
18506;DHT22;9382;53.242;10.438;2023-05-14T08:37:57;22.20;99.90
18506;DHT22;9382;53.242;10.438;2023-05-14T08:40:25;22.30;99.90
18506;DHT22;9382;53.242;10.438;2023-05-14T08:42:52;22.40;99.90
18506;DHT22;9382;53.242;10.438;2023-05-14T08:45:20;22.50;99.90
18506;DHT22;9382;53.242;10.438;2023-05-14T08:47:51;22.60;99.90
18506;DHT22;9382;53.242;10.438;2023-05-14T08:50:18;22.70;99.90
18506;DHT22;9382;53.242;10.438;2023-05-14T08:52:45;22.80;99.90
18506;DHT22;9382;53.242;10.438;2023-05-14T08:55:12;22.90;99.90
18506;DHT22;9382;53.242;10.438;2023-05-14T08:57:39;23.00;99.90
18506;DHT22;9382;53.242;10.438;2023-05-14T09:00:07;23.30;99.90
18506;DHT22;9382;53.242;10.438;2023-05-14T09:02:36;23.40;99.90
18506;DHT22;9382;53.242;10.438;2023-05-14T09:05:06;23.50;99.90
18506;DHT22;9382;53.242;10.438;2023-05-14T09:07:34;23.50;99.90
18506;DHT22;9382;53.242;10.438;2023-05-14T09:10:01;23.60;99.90
18506;DHT22;9382;53.242;10.438;2023-05-14T09:12:28;23.50;99.90
18506;DHT22;9382;53.242;10.438;2023-05-14T09:14:55;23.70;99.90
18506;DHT22;9382;53.242;10.438;2023-05-14T09:17:24;24.10;99.90
18506;DHT22;9382;53.242;10.438;2023-05-14T09:19:51;24.30;99.90
18506;DHT22;9382;53.242;10.438;2023-05-14T09:22:19;24.60;99.90
18506;DHT22;9382;53.242;10.438;2023-05-14T09:25:01;24.60;99.90
18506;DHT22;9382;53.242;10.438;2023-05-14T09:27:29;24.60;99.90
18506;DHT22;9382;53.242;10.438;2023-05-14T09:30:03;24.70;99.90
18506;DHT22;9382;53.242;10.438;2023-05-14T09:32:34;24.60;99.90
18506;DHT22;9382;53.242;10.438;2023-05-14T09:35:09;24.30;99.90
18506;DHT22;9382;53.242;10.438;2023-05-14T09:37:39;24.10;99.90
18506;DHT22;9382;53.242;10.438;2023-05-14T09:40:07;23.90;99.90
18506;DHT22;9382;53.242;10.438;2023-05-14T09:42:34;23.90;99.90
18506;DHT22;9382;53.242;10.438;2023-05-14T09:45:01;24.20;99.90
18506;DHT22;9382;53.242;10.438;2023-05-14T09:47:29;24.00;99.90
18506;DHT22;9382;53.242;10.438;2023-05-14T09:49:56;23.70;99.50
18506;DHT22;9382;53.242;10.438;2023-05-14T09:52:23;23.90;99.90
18506;DHT22;9382;53.242;10.438;2023-05-14T09:54:51;24.40;99.90
18506;DHT22;9382;53.242;10.438;2023-05-14T09:57:18;25.00;99.90
18506;DHT22;9382;53.242;10.438;2023-05-14T09:59:45;25.40;98.20
18506;DHT22;9382;53.242;10.438;2023-05-14T10:02:22;25.50;94.30
18506;DHT22;9382;53.242;10.438;2023-05-14T10:04:50;25.40;93.50
18506;DHT22;9382;53.242;10.438;2023-05-14T10:07:21;25.20;94.40
18506;DHT22;9382;53.242;10.438;2023-05-14T10:09:53;24.80;94.00
18506;DHT22;9382;53.242;10.438;2023-05-14T10:12:21;24.70;94.20
18506;DHT22;9382;53.242;10.438;2023-05-14T10:14:49;24.90;97.70
18506;DHT22;9382;53.242;10.438;2023-05-14T10:17:20;25.20;94.80
18506;DHT22;9382;53.242;10.438;2023-05-14T10:19:51;25.50;94.50
18506;DHT22;9382;53.242;10.438;2023-05-14T10:22:22;25.70;94.20
18506;DHT22;9382;53.242;10.438;2023-05-14T10:24:49;26.00;94.40
18506;DHT22;9382;53.242;10.438;2023-05-14T10:27:19;26.10;94.00
18506;DHT22;9382;53.242;10.438;2023-05-14T10:29:50;26.00;91.10
18506;DHT22;9382;53.242;10.438;2023-05-14T10:32:20;25.90;92.10
18506;DHT22;9382;53.242;10.438;2023-05-14T10:34:47;25.80;91.30
18506;DHT22;9382;53.242;10.438;2023-05-14T10:37:15;25.50;91.30
18506;DHT22;9382;53.242;10.438;2023-05-14T10:39:44;25.00;92.40
18506;DHT22;9382;53.242;10.438;2023-05-14T10:42:12;24.90;91.70
18506;DHT22;9382;53.242;10.438;2023-05-14T10:44:48;24.80;93.00
18506;DHT22;9382;53.242;10.438;2023-05-14T10:47:16;24.90;91.60
18506;DHT22;9382;53.242;10.438;2023-05-14T10:49:45;24.80;93.40
18506;DHT22;9382;53.242;10.438;2023-05-14T10:52:15;24.50;94.90
18506;DHT22;9382;53.242;10.438;2023-05-14T10:54:49;24.10;93.40
18506;DHT22;9382;53.242;10.438;2023-05-14T10:57:17;23.80;91.40
18506;DHT22;9382;53.242;10.438;2023-05-14T10:59:47;23.60;91.60
18506;DHT22;9382;53.242;10.438;2023-05-14T11:02:21;23.40;91.60
18506;DHT22;9382;53.242;10.438;2023-05-14T11:04:53;23.30;94.10
18506;DHT22;9382;53.242;10.438;2023-05-14T11:07:23;23.20;95.90
18506;DHT22;9382;53.242;10.438;2023-05-14T11:09:50;23.00;95.00
18506;DHT22;9382;53.242;10.438;2023-05-14T11:12:18;22.90;94.60
18506;DHT22;9382;53.242;10.438;2023-05-14T11:14:47;22.90;97.30
18506;DHT22;9382;53.242;10.438;2023-05-14T11:17:15;22.70;95.30
18506;DHT22;9382;53.242;10.438;2023-05-14T11:19:42;22.60;95.80
18506;DHT22;9382;53.242;10.438;2023-05-14T11:22:10;22.40;98.20
18506;DHT22;9382;53.242;10.438;2023-05-14T11:24:38;22.20;97.00
18506;DHT22;9382;53.242;10.438;2023-05-14T11:27:06;21.90;97.30
18506;DHT22;9382;53.242;10.438;2023-05-14T11:29:33;21.60;99.90
18506;DHT22;9382;53.242;10.438;2023-05-14T11:32:01;21.40;99.90
18506;DHT22;9382;53.242;10.438;2023-05-14T11:34:28;21.30;99.90
18506;DHT22;9382;53.242;10.438;2023-05-14T11:36:55;21.20;99.90
18506;DHT22;9382;53.242;10.438;2023-05-14T11:39:21;21.20;99.90
18506;DHT22;9382;53.242;10.438;2023-05-14T11:41:48;21.20;99.90
18506;DHT22;9382;53.242;10.438;2023-05-14T11:44:14;21.10;99.90
18506;DHT22;9382;53.242;10.438;2023-05-14T11:46:53;21.00;99.90
18506;DHT22;9382;53.242;10.438;2023-05-14T11:49:21;21.00;99.90
18506;DHT22;9382;53.242;10.438;2023-05-14T11:51:48;20.90;99.90
18506;DHT22;9382;53.242;10.438;2023-05-14T11:54:15;20.80;99.90
18506;DHT22;9382;53.242;10.438;2023-05-14T11:56:41;20.80;99.90
18506;DHT22;9382;53.242;10.438;2023-05-14T11:59:09;20.80;99.90
18506;DHT22;9382;53.242;10.438;2023-05-14T12:01:37;20.80;99.90
18506;DHT22;9382;53.242;10.438;2023-05-14T12:04:04;20.80;99.90
18506;DHT22;9382;53.242;10.438;2023-05-14T12:06:32;20.90;99.90
18506;DHT22;9382;53.242;10.438;2023-05-14T12:08:59;20.90;99.90
18506;DHT22;9382;53.242;10.438;2023-05-14T12:11:30;21.00;99.90
18506;DHT22;9382;53.242;10.438;2023-05-14T12:13:56;21.00;99.90
18506;DHT22;9382;53.242;10.438;2023-05-14T12:16:29;21.00;99.90
18506;DHT22;9382;53.242;10.438;2023-05-14T12:18:58;20.90;99.90
18506;DHT22;9382;53.242;10.438;2023-05-14T12:21:26;20.80;99.90
18506;DHT22;9382;53.242;10.438;2023-05-14T12:23:57;20.70;99.90
18506;DHT22;9382;53.242;10.438;2023-05-14T12:26:25;20.60;99.90
18506;DHT22;9382;53.242;10.438;2023-05-14T12:28:56;20.60;99.90
18506;DHT22;9382;53.242;10.438;2023-05-14T12:31:27;20.60;99.90
18506;DHT22;9382;53.242;10.438;2023-05-14T12:33:54;20.60;99.90
18506;DHT22;9382;53.242;10.438;2023-05-14T12:36:21;20.60;99.90
18506;DHT22;9382;53.242;10.438;2023-05-14T12:38:48;20.70;99.90
18506;DHT22;9382;53.242;10.438;2023-05-14T12:41:16;20.70;99.80
18506;DHT22;9382;53.242;10.438;2023-05-14T12:43:43;20.80;99.80
18506;DHT22;9382;53.242;10.438;2023-05-14T12:46:10;21.00;99.60
18506;DHT22;9382;53.242;10.438;2023-05-14T12:48:37;21.20;99.90
18506;DHT22;9382;53.242;10.438;2023-05-14T12:51:03;21.40;99.90
18506;DHT22;9382;53.242;10.438;2023-05-14T12:53:31;21.60;99.90
18506;DHT22;9382;53.242;10.438;2023-05-14T12:55:57;21.80;99.90
18506;DHT22;9382;53.242;10.438;2023-05-14T12:58:25;22.10;99.90
18506;DHT22;9382;53.242;10.438;2023-05-14T13:00:52;22.50;99.90
18506;DHT22;9382;53.242;10.438;2023-05-14T13:03:19;22.70;99.90
18506;DHT22;9382;53.242;10.438;2023-05-14T13:05:45;22.80;99.90
18506;DHT22;9382;53.242;10.438;2023-05-14T13:08:12;23.00;98.50
18506;DHT22;9382;53.242;10.438;2023-05-14T13:10:42;23.10;99.90
18506;DHT22;9382;53.242;10.438;2023-05-14T13:13:08;23.40;99.90
18506;DHT22;9382;53.242;10.438;2023-05-14T13:15:37;23.60;99.80
18506;DHT22;9382;53.242;10.438;2023-05-14T13:18:04;23.80;99.90
18506;DHT22;9382;53.242;10.438;2023-05-14T13:20:30;24.20;97.30
18506;DHT22;9382;53.242;10.438;2023-05-14T13:22:57;24.80;98.10
18506;DHT22;9382;53.242;10.438;2023-05-14T13:25:23;26.10;99.90
18506;DHT22;9382;53.242;10.438;2023-05-14T13:27:50;26.60;94.70
18506;DHT22;9382;53.242;10.438;2023-05-14T13:30:17;26.60;94.90
18506;DHT22;9382;53.242;10.438;2023-05-14T13:32:45;27.50;94.90
18506;DHT22;9382;53.242;10.438;2023-05-14T13:35:12;29.20;93.70
18506;DHT22;9382;53.242;10.438;2023-05-14T13:37:39;30.60;92.30
18506;DHT22;9382;53.242;10.438;2023-05-14T13:40:07;31.80;86.50
18506;DHT22;9382;53.242;10.438;2023-05-14T13:42:34;32.30;90.80
18506;DHT22;9382;53.242;10.438;2023-05-14T13:45:01;32.40;76.90
18506;DHT22;9382;53.242;10.438;2023-05-14T13:47:28;33.10;79.50
18506;DHT22;9382;53.242;10.438;2023-05-14T13:49:56;34.20;80.50
18506;DHT22;9382;53.242;10.438;2023-05-14T13:52:24;35.20;66.70
18506;DHT22;9382;53.242;10.438;2023-05-14T13:54:51;35.80;66.40
18506;DHT22;9382;53.242;10.438;2023-05-14T13:57:18;36.50;66.30
18506;DHT22;9382;53.242;10.438;2023-05-14T13:59:46;36.70;68.20
18506;DHT22;9382;53.242;10.438;2023-05-14T14:02:13;37.00;63.90
18506;DHT22;9382;53.242;10.438;2023-05-14T14:04:39;37.40;58.80
18506;DHT22;9382;53.242;10.438;2023-05-14T14:07:07;37.80;62.10
18506;DHT22;9382;53.242;10.438;2023-05-14T14:09:34;37.60;60.90
18506;DHT22;9382;53.242;10.438;2023-05-14T14:12:02;36.60;60.10
18506;DHT22;9382;53.242;10.438;2023-05-14T14:14:29;35.00;57.20
18506;DHT22;9382;53.242;10.438;2023-05-14T14:16:55;33.60;60.80
18506;DHT22;9382;53.242;10.438;2023-05-14T14:19:22;32.70;62.70
18506;DHT22;9382;53.242;10.438;2023-05-14T14:21:49;32.70;62.40
18506;DHT22;9382;53.242;10.438;2023-05-14T14:24:16;33.70;65.50
18506;DHT22;9382;53.242;10.438;2023-05-14T14:26:43;34.90;62.70
18506;DHT22;9382;53.242;10.438;2023-05-14T14:29:10;36.00;63.10
18506;DHT22;9382;53.242;10.438;2023-05-14T14:31:36;36.80;61.70
18506;DHT22;9382;53.242;10.438;2023-05-14T14:34:03;37.70;61.50
18506;DHT22;9382;53.242;10.438;2023-05-14T14:36:30;38.40;57.00
18506;DHT22;9382;53.242;10.438;2023-05-14T14:38:56;38.80;53.60
18506;DHT22;9382;53.242;10.438;2023-05-14T14:41:24;38.90;54.70
18506;DHT22;9382;53.242;10.438;2023-05-14T14:43:51;39.10;55.90
18506;DHT22;9382;53.242;10.438;2023-05-14T14:46:18;38.90;55.20
18506;DHT22;9382;53.242;10.438;2023-05-14T14:48:44;38.70;54.40
18506;DHT22;9382;53.242;10.438;2023-05-14T14:51:11;38.50;56.20
18506;DHT22;9382;53.242;10.438;2023-05-14T14:53:38;38.30;55.00
18506;DHT22;9382;53.242;10.438;2023-05-14T14:56:05;38.50;52.10
18506;DHT22;9382;53.242;10.438;2023-05-14T14:58:33;38.50;53.20
18506;DHT22;9382;53.242;10.438;2023-05-14T15:01:01;38.40;53.70
18506;DHT22;9382;53.242;10.438;2023-05-14T15:03:27;38.40;54.10
18506;DHT22;9382;53.242;10.438;2023-05-14T15:05:54;38.30;53.60
18506;DHT22;9382;53.242;10.438;2023-05-14T15:08:24;38.10;54.10
18506;DHT22;9382;53.242;10.438;2023-05-14T15:10:51;37.50;51.50
18506;DHT22;9382;53.242;10.438;2023-05-14T15:13:18;37.20;52.90
18506;DHT22;9382;53.242;10.438;2023-05-14T15:15:46;37.20;54.30
18506;DHT22;9382;53.242;10.438;2023-05-14T15:18:13;37.40;52.70
18506;DHT22;9382;53.242;10.438;2023-05-14T15:20:40;37.70;53.10
18506;DHT22;9382;53.242;10.438;2023-05-14T15:23:06;37.90;51.90
18506;DHT22;9382;53.242;10.438;2023-05-14T15:25:33;37.90;51.90
18506;DHT22;9382;53.242;10.438;2023-05-14T15:28:00;37.80;50.30
18506;DHT22;9382;53.242;10.438;2023-05-14T15:30:26;37.70;53.40
18506;DHT22;9382;53.242;10.438;2023-05-14T15:32:54;37.60;51.70
18506;DHT22;9382;53.242;10.438;2023-05-14T15:35:21;37.60;52.00